VOI248 MMMX-MMMY
Flight info
| Callsign | VOI248 |
|---|---|
| Flight time | 1h 13m |
| Altitude | 38000 |
| Route | AXIR2A/05L AXIRI UT138 TALPU DCT RETOS RETOS1A |
| Aircraft | A320/M-SDE3FGHIRWY/LB1 |
Departure
| Time | 2026-04-21 04:52 |
|---|---|
| Airport | Mexico City Benito Juárez International Airport (MMMX) |
Arrival
| Time | 2026-04-21 06:05 |
|---|---|
| Airport | Monterrey International Airport (MMMY) |
| Time | Latitude | Longitude | Altitude | Speed | Heading |
|---|---|---|---|---|---|
| 2026-04-21 03:51 | 19.43228 | -99.08624 | 7303 ft | 0 kts | 352° |
| 2026-04-21 04:05 | 19.43227 | -99.08624 | 7303 ft | 0 kts | 352° |
| 2026-04-21 04:41 | 19.43220 | -99.08623 | 7303 ft | 4 kts | 351° |
| 2026-04-21 04:41 | 19.43194 | -99.08618 | 7303 ft | 4 kts | 342° |
| 2026-04-21 04:41 | 19.43169 | -99.08607 | 7303 ft | 4 kts | 324° |
| 2026-04-21 04:42 | 19.43153 | -99.08588 | 7303 ft | 4 kts | 265° |
| 2026-04-21 04:42 | 19.43154 | -99.08580 | 7303 ft | 0 kts | 240° |
| 2026-04-21 04:47 | 19.43154 | -99.08581 | 7303 ft | 1 kts | 240° |
| 2026-04-21 04:48 | 19.43132 | -99.08620 | 7303 ft | 13 kts | 240° |
| 2026-04-21 04:48 | 19.43084 | -99.08708 | 7303 ft | 14 kts | 240° |
| 2026-04-21 04:48 | 19.43032 | -99.08802 | 7303 ft | 15 kts | 239° |
| 2026-04-21 04:48 | 19.42977 | -99.08901 | 7303 ft | 16 kts | 239° |
| 2026-04-21 04:49 | 19.42916 | -99.09002 | 7303 ft | 17 kts | 229° |
| 2026-04-21 04:49 | 19.42855 | -99.09048 | 7303 ft | 0 kts | 207° |
| 2026-04-21 04:49 | 19.42851 | -99.09050 | 7303 ft | 1 kts | 207° |
| 2026-04-21 04:49 | 19.42837 | -99.09058 | 7303 ft | 3 kts | 207° |
| 2026-04-21 04:50 | 19.42814 | -99.09071 | 7303 ft | 4 kts | 207° |
| 2026-04-21 04:50 | 19.42784 | -99.09088 | 7303 ft | 5 kts | 207° |
| 2026-04-21 04:50 | 19.42754 | -99.09072 | 7303 ft | 7 kts | 106° |
| 2026-04-21 04:50 | 19.42776 | -99.09021 | 7303 ft | 8 kts | 59° |
| 2026-04-21 04:51 | 19.42806 | -99.08967 | 7303 ft | 9 kts | 60° |
| 2026-04-21 04:51 | 19.42889 | -99.08818 | 7303 ft | 54 kts | 58° |
| 2026-04-21 04:51 | 19.43195 | -99.08272 | 7302 ft | 117 kts | 58° |
| 2026-04-21 04:51 | 19.43702 | -99.07374 | 7303 ft | 166 kts | 58° |
| 2026-04-21 04:52 | 19.44110 | -99.06593 | 7339 ft | 192 kts | 63° |
| 2026-04-21 04:52 | 19.45066 | -99.05006 | 8708 ft | 189 kts | 56° |
| 2026-04-21 04:52 | 19.45775 | -99.03818 | 9209 ft | 198 kts | 60° |
| 2026-04-21 04:52 | 19.46517 | -99.02485 | 9414 ft | 221 kts | 60° |
| 2026-04-21 04:53 | 19.47046 | -99.01522 | 9539 ft | 235 kts | 59° |
| 2026-04-21 04:53 | 19.47913 | -98.99950 | 9707 ft | 259 kts | 59° |
| 2026-04-21 04:53 | 19.48866 | -98.98226 | 9970 ft | 282 kts | 59° |
| 2026-04-21 04:53 | 19.49896 | -98.96372 | 10254 ft | 303 kts | 59° |
| 2026-04-21 04:54 | 19.51006 | -98.94373 | 10405 ft | 326 kts | 59° |
| 2026-04-21 04:54 | 19.52185 | -98.92255 | 10728 ft | 339 kts | 59° |
| 2026-04-21 04:54 | 19.53476 | -98.90135 | 11254 ft | 345 kts | 51° |
| 2026-04-21 04:54 | 19.55115 | -98.88259 | 11798 ft | 349 kts | 46° |
| 2026-04-21 04:55 | 19.56778 | -98.86363 | 12378 ft | 353 kts | 47° |
| 2026-04-21 04:55 | 19.58442 | -98.84435 | 12968 ft | 357 kts | 47° |
| 2026-04-21 04:55 | 19.60128 | -98.82470 | 13531 ft | 362 kts | 47° |
| 2026-04-21 04:55 | 19.61831 | -98.80485 | 14076 ft | 366 kts | 47° |
| 2026-04-21 04:56 | 19.63556 | -98.78480 | 14572 ft | 369 kts | 47° |
| 2026-04-21 04:56 | 19.65298 | -98.76462 | 15088 ft | 372 kts | 47° |
| 2026-04-21 04:56 | 19.67058 | -98.74426 | 15600 ft | 375 kts | 47° |
| 2026-04-21 04:56 | 19.68935 | -98.72497 | 16100 ft | 377 kts | 37° |
| 2026-04-21 04:57 | 19.71155 | -98.71011 | 16600 ft | 379 kts | 25° |
| 2026-04-21 04:57 | 19.73634 | -98.70050 | 17106 ft | 381 kts | 13° |
| 2026-04-21 04:57 | 19.76260 | -98.69644 | 17593 ft | 383 kts | 2° |
| 2026-04-21 04:57 | 19.78902 | -98.69470 | 18080 ft | 386 kts | 3° |
| 2026-04-21 04:58 | 19.81588 | -98.69289 | 18551 ft | 389 kts | 3° |
| 2026-04-21 04:58 | 19.84307 | -98.69103 | 18970 ft | 392 kts | 3° |
| 2026-04-21 04:58 | 19.87048 | -98.68916 | 19378 ft | 395 kts | 2° |
| 2026-04-21 04:58 | 19.89803 | -98.68728 | 19805 ft | 398 kts | 2° |
| 2026-04-21 04:59 | 19.92574 | -98.68561 | 20221 ft | 401 kts | 359° |
| 2026-04-21 04:59 | 19.95356 | -98.68813 | 20640 ft | 401 kts | 347° |
| 2026-04-21 04:59 | 19.98041 | -98.69647 | 21061 ft | 402 kts | 336° |
| 2026-04-21 04:59 | 20.00523 | -98.71024 | 21493 ft | 402 kts | 324° |
| 2026-04-21 05:00 | 20.02770 | -98.72738 | 21914 ft | 404 kts | 322° |
| 2026-04-21 05:00 | 20.05050 | -98.74503 | 22343 ft | 406 kts | 322° |
| 2026-04-21 05:00 | 20.09655 | -98.78056 | 23187 ft | 411 kts | 322° |
| 2026-04-21 05:01 | 20.11978 | -98.79847 | 23603 ft | 414 kts | 322° |
| 2026-04-21 05:01 | 20.14313 | -98.81650 | 23966 ft | 416 kts | 321° |
| 2026-04-21 05:01 | 20.16662 | -98.83470 | 24303 ft | 418 kts | 321° |
| 2026-04-21 05:01 | 20.19007 | -98.85299 | 24659 ft | 420 kts | 321° |
| 2026-04-21 05:02 | 20.21368 | -98.87152 | 25014 ft | 422 kts | 321° |
| 2026-04-21 05:02 | 20.23732 | -98.89016 | 25367 ft | 424 kts | 320° |
| 2026-04-21 05:02 | 20.26066 | -98.90940 | 25719 ft | 425 kts | 318° |
| 2026-04-21 05:02 | 20.28353 | -98.92954 | 26073 ft | 426 kts | 316° |
| 2026-04-21 05:03 | 20.30602 | -98.95021 | 26420 ft | 428 kts | 316° |
| 2026-04-21 05:03 | 20.32845 | -98.97117 | 26769 ft | 430 kts | 315° |
| 2026-04-21 05:03 | 20.35100 | -98.99219 | 27090 ft | 432 kts | 316° |
| 2026-04-21 05:03 | 20.37382 | -99.01323 | 27424 ft | 434 kts | 316° |
| 2026-04-21 05:04 | 20.39707 | -99.03401 | 27759 ft | 437 kts | 320° |
| 2026-04-21 05:04 | 20.42275 | -99.05101 | 28097 ft | 445 kts | 330° |
| 2026-04-21 05:04 | 20.45181 | -99.06297 | 28448 ft | 452 kts | 341° |
| 2026-04-21 05:04 | 20.48297 | -99.06907 | 28778 ft | 460 kts | 352° |
| 2026-04-21 05:05 | 20.51520 | -99.06914 | 29090 ft | 466 kts | 359° |
| 2026-04-21 05:05 | 20.54772 | -99.06749 | 29417 ft | 469 kts | 359° |
| 2026-04-21 05:05 | 20.58039 | -99.06578 | 29752 ft | 471 kts | 359° |
| 2026-04-21 05:05 | 20.61325 | -99.06405 | 30075 ft | 474 kts | 359° |
| 2026-04-21 05:06 | 20.64623 | -99.06233 | 30445 ft | 474 kts | 359° |
| 2026-04-21 05:06 | 20.67911 | -99.06063 | 30856 ft | 472 kts | 358° |
| 2026-04-21 05:06 | 20.71196 | -99.05897 | 31280 ft | 471 kts | 358° |
| 2026-04-21 05:06 | 20.74455 | -99.05733 | 31705 ft | 469 kts | 358° |
| 2026-04-21 05:07 | 20.77719 | -99.05568 | 32133 ft | 468 kts | 358° |
| 2026-04-21 05:07 | 20.80967 | -99.05404 | 32557 ft | 467 kts | 358° |
| 2026-04-21 05:07 | 20.84206 | -99.05239 | 33013 ft | 465 kts | 358° |
| 2026-04-21 05:07 | 20.87399 | -99.05078 | 33467 ft | 464 kts | 358° |
| 2026-04-21 05:08 | 20.90617 | -99.04915 | 33948 ft | 462 kts | 358° |
| 2026-04-21 05:08 | 20.93830 | -99.04752 | 34379 ft | 460 kts | 358° |
| 2026-04-21 05:08 | 20.97019 | -99.04591 | 34727 ft | 459 kts | 358° |
| 2026-04-21 05:08 | 21.00222 | -99.04428 | 34988 ft | 460 kts | 358° |
| 2026-04-21 05:09 | 21.03418 | -99.04263 | 35312 ft | 459 kts | 358° |
| 2026-04-21 05:09 | 21.06611 | -99.04098 | 35600 ft | 459 kts | 358° |
| 2026-04-21 05:09 | 21.09805 | -99.03935 | 35901 ft | 459 kts | 358° |
| 2026-04-21 05:09 | 21.12964 | -99.03774 | 36174 ft | 460 kts | 358° |
| 2026-04-21 05:10 | 21.16158 | -99.03611 | 36463 ft | 459 kts | 358° |
| 2026-04-21 05:10 | 21.19353 | -99.03447 | 36677 ft | 460 kts | 358° |
| 2026-04-21 05:10 | 21.22557 | -99.03283 | 36942 ft | 460 kts | 358° |
| 2026-04-21 05:10 | 21.25752 | -99.03120 | 37232 ft | 459 kts | 358° |
| 2026-04-21 05:11 | 21.28938 | -99.02956 | 37525 ft | 459 kts | 358° |
| 2026-04-21 05:11 | 21.32135 | -99.02791 | 37793 ft | 459 kts | 358° |
| 2026-04-21 05:11 | 21.35322 | -99.02627 | 38037 ft | 459 kts | 358° |
| 2026-04-21 05:11 | 21.38523 | -99.02462 | 38120 ft | 461 kts | 358° |
| 2026-04-21 05:12 | 21.44938 | -99.02135 | 38125 ft | 465 kts | 358° |
| 2026-04-21 05:12 | 21.51412 | -99.01805 | 38130 ft | 465 kts | 358° |
| 2026-04-21 05:13 | 21.57876 | -99.01474 | 38130 ft | 465 kts | 357° |
| 2026-04-21 05:13 | 21.64349 | -99.01132 | 38125 ft | 465 kts | 357° |
| 2026-04-21 05:14 | 21.70813 | -99.00798 | 38132 ft | 465 kts | 357° |
| 2026-04-21 05:14 | 21.77281 | -99.00472 | 38137 ft | 465 kts | 357° |
| 2026-04-21 05:15 | 21.83751 | -99.00143 | 38143 ft | 465 kts | 357° |
| 2026-04-21 05:15 | 21.90179 | -98.99804 | 38154 ft | 466 kts | 357° |
| 2026-04-21 05:16 | 21.96652 | -98.99462 | 38155 ft | 466 kts | 357° |
| 2026-04-21 05:16 | 22.03126 | -98.99130 | 38162 ft | 466 kts | 357° |
| 2026-04-21 05:17 | 22.09607 | -98.98799 | 38164 ft | 466 kts | 357° |
| 2026-04-21 05:17 | 22.16087 | -98.98466 | 38165 ft | 466 kts | 357° |
| 2026-04-21 05:18 | 22.22552 | -98.98127 | 38169 ft | 466 kts | 357° |
| 2026-04-21 05:18 | 22.29025 | -98.97790 | 38173 ft | 466 kts | 357° |
| 2026-04-21 05:19 | 22.35497 | -98.97450 | 38174 ft | 465 kts | 356° |
| 2026-04-21 05:19 | 22.41974 | -98.97115 | 38175 ft | 465 kts | 356° |
| 2026-04-21 05:20 | 22.48403 | -98.96785 | 38179 ft | 465 kts | 356° |
| 2026-04-21 05:20 | 22.54863 | -98.96450 | 38180 ft | 464 kts | 356° |
| 2026-04-21 05:21 | 22.61314 | -98.96110 | 38176 ft | 464 kts | 356° |
| 2026-04-21 05:21 | 22.67763 | -98.95776 | 38184 ft | 464 kts | 356° |
| 2026-04-21 05:22 | 22.74202 | -98.95439 | 38184 ft | 464 kts | 356° |
| 2026-04-21 05:22 | 22.80647 | -98.95102 | 38180 ft | 464 kts | 356° |
| 2026-04-21 05:23 | 22.87093 | -98.94758 | 38189 ft | 464 kts | 356° |
| 2026-04-21 05:23 | 22.93547 | -98.94417 | 38187 ft | 464 kts | 356° |
| 2026-04-21 05:24 | 22.99986 | -98.94085 | 38193 ft | 464 kts | 356° |
| 2026-04-21 05:24 | 23.06434 | -98.93753 | 38197 ft | 464 kts | 356° |
| 2026-04-21 05:25 | 23.12892 | -98.93409 | 38198 ft | 464 kts | 356° |
| 2026-04-21 05:25 | 23.19345 | -98.93063 | 38197 ft | 464 kts | 356° |
| 2026-04-21 05:26 | 23.25803 | -98.92720 | 38202 ft | 465 kts | 356° |
| 2026-04-21 05:26 | 23.32235 | -98.92613 | 38206 ft | 456 kts | 346° |
| 2026-04-21 05:27 | 23.38356 | -98.93982 | 38202 ft | 447 kts | 339° |
| 2026-04-21 05:27 | 23.44411 | -98.95589 | 38204 ft | 448 kts | 339° |
| 2026-04-21 05:28 | 23.50436 | -98.97169 | 38207 ft | 448 kts | 339° |
| 2026-04-21 05:28 | 23.56503 | -98.98756 | 38210 ft | 448 kts | 339° |
| 2026-04-21 05:29 | 23.62579 | -99.00350 | 38210 ft | 448 kts | 339° |
| 2026-04-21 05:29 | 23.68655 | -99.01950 | 38210 ft | 449 kts | 339° |
| 2026-04-21 05:30 | 23.74726 | -99.03552 | 38215 ft | 449 kts | 339° |
| 2026-04-21 05:30 | 23.80795 | -99.05155 | 38214 ft | 449 kts | 339° |
| 2026-04-21 05:31 | 23.86865 | -99.06754 | 38220 ft | 449 kts | 339° |
| 2026-04-21 05:31 | 23.92941 | -99.08365 | 38217 ft | 449 kts | 339° |
| 2026-04-21 05:32 | 23.98978 | -99.09967 | 38221 ft | 449 kts | 339° |
| 2026-04-21 05:32 | 24.05047 | -99.11573 | 38221 ft | 449 kts | 339° |
| 2026-04-21 05:33 | 24.11113 | -99.13181 | 38211 ft | 448 kts | 339° |
| 2026-04-21 05:33 | 24.17181 | -99.14791 | 38179 ft | 450 kts | 339° |
| 2026-04-21 05:34 | 24.20261 | -99.15617 | 37910 ft | 461 kts | 339° |
| 2026-04-21 05:34 | 24.23392 | -99.16459 | 37646 ft | 465 kts | 339° |
| 2026-04-21 05:34 | 24.26558 | -99.17306 | 37405 ft | 467 kts | 339° |
| 2026-04-21 05:34 | 24.29720 | -99.18143 | 37145 ft | 468 kts | 339° |
| 2026-04-21 05:35 | 24.32848 | -99.18967 | 36894 ft | 468 kts | 339° |
| 2026-04-21 05:35 | 24.36013 | -99.19804 | 36644 ft | 468 kts | 339° |
| 2026-04-21 05:35 | 24.39174 | -99.20642 | 36405 ft | 467 kts | 339° |
| 2026-04-21 05:35 | 24.42332 | -99.21481 | 36159 ft | 466 kts | 339° |
| 2026-04-21 05:36 | 24.45480 | -99.22316 | 35910 ft | 464 kts | 339° |
| 2026-04-21 05:36 | 24.48613 | -99.23151 | 35675 ft | 462 kts | 339° |
| 2026-04-21 05:36 | 24.51745 | -99.23989 | 35074 ft | 462 kts | 339° |
| 2026-04-21 05:36 | 24.54848 | -99.24819 | 34666 ft | 457 kts | 339° |
| 2026-04-21 05:37 | 24.57926 | -99.25643 | 34175 ft | 454 kts | 339° |
| 2026-04-21 05:37 | 24.60994 | -99.26465 | 33457 ft | 454 kts | 339° |
| 2026-04-21 05:37 | 24.64063 | -99.27293 | 32633 ft | 457 kts | 340° |
| 2026-04-21 05:37 | 24.67155 | -99.28126 | 31891 ft | 457 kts | 340° |
| 2026-04-21 05:38 | 24.70255 | -99.28956 | 31190 ft | 457 kts | 340° |
| 2026-04-21 05:38 | 24.73264 | -99.29755 | 30674 ft | 443 kts | 340° |
| 2026-04-21 05:38 | 24.76213 | -99.30530 | 30091 ft | 428 kts | 339° |
| 2026-04-21 05:38 | 24.79058 | -99.31281 | 29556 ft | 412 kts | 339° |
| 2026-04-21 05:39 | 24.81792 | -99.32007 | 29068 ft | 397 kts | 339° |
| 2026-04-21 05:39 | 24.84421 | -99.32713 | 28594 ft | 383 kts | 339° |
| 2026-04-21 05:39 | 24.86975 | -99.33403 | 28137 ft | 372 kts | 339° |
| 2026-04-21 05:39 | 24.89481 | -99.34085 | 27687 ft | 371 kts | 339° |
| 2026-04-21 05:40 | 24.91978 | -99.34766 | 27250 ft | 370 kts | 339° |
| 2026-04-21 05:40 | 24.94470 | -99.35447 | 26816 ft | 369 kts | 339° |
| 2026-04-21 05:40 | 24.96157 | -99.35907 | 26520 ft | 369 kts | 339° |
| 2026-04-21 05:40 | 24.98645 | -99.36580 | 26102 ft | 367 kts | 339° |
| 2026-04-21 05:41 | 25.01123 | -99.37250 | 25676 ft | 366 kts | 339° |
| 2026-04-21 05:41 | 25.03565 | -99.37908 | 25272 ft | 364 kts | 340° |
| 2026-04-21 05:41 | 25.06023 | -99.38567 | 24872 ft | 363 kts | 340° |
| 2026-04-21 05:41 | 25.08471 | -99.39223 | 24477 ft | 361 kts | 340° |
| 2026-04-21 05:42 | 25.10911 | -99.39879 | 24084 ft | 359 kts | 340° |
| 2026-04-21 05:42 | 25.13328 | -99.40533 | 23672 ft | 358 kts | 340° |
| 2026-04-21 05:42 | 25.15736 | -99.41185 | 23232 ft | 355 kts | 340° |
| 2026-04-21 05:42 | 25.18128 | -99.41832 | 22834 ft | 351 kts | 340° |
| 2026-04-21 05:43 | 25.20480 | -99.42511 | 22427 ft | 346 kts | 336° |
| 2026-04-21 05:43 | 25.22680 | -99.43521 | 22009 ft | 340 kts | 329° |
| 2026-04-21 05:43 | 25.24815 | -99.44631 | 21592 ft | 338 kts | 330° |
| 2026-04-21 05:43 | 25.26940 | -99.45732 | 21182 ft | 337 kts | 330° |
| 2026-04-21 05:44 | 25.29056 | -99.46830 | 20765 ft | 335 kts | 330° |
| 2026-04-21 05:44 | 25.31171 | -99.47924 | 20330 ft | 335 kts | 330° |
| 2026-04-21 05:44 | 25.33279 | -99.49013 | 19903 ft | 334 kts | 330° |
| 2026-04-21 05:44 | 25.35358 | -99.50091 | 19472 ft | 334 kts | 330° |
| 2026-04-21 05:45 | 25.37465 | -99.51181 | 19033 ft | 334 kts | 331° |
| 2026-04-21 05:45 | 25.39573 | -99.52272 | 18599 ft | 335 kts | 331° |
| 2026-04-21 05:45 | 25.41682 | -99.53367 | 18111 ft | 335 kts | 331° |
| 2026-04-21 05:45 | 25.43786 | -99.54462 | 17669 ft | 333 kts | 331° |
| 2026-04-21 05:46 | 25.45887 | -99.55553 | 17230 ft | 332 kts | 331° |
| 2026-04-21 05:46 | 25.47976 | -99.56636 | 16844 ft | 331 kts | 332° |
| 2026-04-21 05:46 | 25.50085 | -99.57731 | 16775 ft | 339 kts | 332° |
| 2026-04-21 05:46 | 25.52244 | -99.58853 | 16789 ft | 343 kts | 331° |
| 2026-04-21 05:47 | 25.54404 | -99.59977 | 16793 ft | 343 kts | 332° |
| 2026-04-21 05:47 | 25.56567 | -99.61101 | 16787 ft | 343 kts | 332° |
| 2026-04-21 05:47 | 25.58730 | -99.62223 | 16784 ft | 343 kts | 332° |
| 2026-04-21 05:47 | 25.60882 | -99.63340 | 16561 ft | 340 kts | 332° |
| 2026-04-21 05:48 | 25.67245 | -99.66661 | 16343 ft | 341 kts | 332° |
| 2026-04-21 05:48 | 25.69382 | -99.67777 | 16272 ft | 340 kts | 332° |
| 2026-04-21 05:49 | 25.71528 | -99.68895 | 16288 ft | 340 kts | 332° |
| 2026-04-21 05:49 | 25.73672 | -99.70011 | 16292 ft | 340 kts | 332° |
| 2026-04-21 05:49 | 25.75752 | -99.71122 | 16284 ft | 319 kts | 327° |
| 2026-04-21 05:49 | 25.76975 | -99.72028 | 16299 ft | 311 kts | 318° |
| 2026-04-21 05:50 | 25.80227 | -99.76654 | 16018 ft | 303 kts | 300° |
| 2026-04-21 05:50 | 25.81354 | -99.78629 | 15894 ft | 303 kts | 300° |
| 2026-04-21 05:50 | 25.82485 | -99.80602 | 15754 ft | 303 kts | 301° |
| 2026-04-21 05:51 | 25.83615 | -99.82568 | 15471 ft | 301 kts | 301° |
| 2026-04-21 05:51 | 25.84745 | -99.84529 | 15218 ft | 300 kts | 301° |
| 2026-04-21 05:51 | 25.85869 | -99.86481 | 14977 ft | 300 kts | 301° |
| 2026-04-21 05:51 | 25.86987 | -99.88429 | 14735 ft | 299 kts | 301° |
| 2026-04-21 05:52 | 25.88102 | -99.90375 | 14580 ft | 299 kts | 301° |
| 2026-04-21 05:52 | 25.89215 | -99.92322 | 14363 ft | 298 kts | 301° |
| 2026-04-21 05:52 | 25.90317 | -99.94250 | 14196 ft | 291 kts | 301° |
| 2026-04-21 05:52 | 25.91389 | -99.96126 | 14079 ft | 283 kts | 301° |
| 2026-04-21 05:53 | 25.92428 | -99.97943 | 13957 ft | 274 kts | 301° |
| 2026-04-21 05:53 | 25.93435 | -99.99703 | 13825 ft | 267 kts | 301° |
| 2026-04-21 05:53 | 25.94425 | -100.01436 | 13548 ft | 265 kts | 301° |
| 2026-04-21 05:53 | 25.95409 | -100.03161 | 13233 ft | 265 kts | 301° |
| 2026-04-21 05:54 | 25.96398 | -100.04894 | 12909 ft | 265 kts | 301° |
| 2026-04-21 05:54 | 25.97382 | -100.06623 | 12540 ft | 265 kts | 301° |
| 2026-04-21 05:54 | 25.98366 | -100.08348 | 12090 ft | 264 kts | 301° |
| 2026-04-21 05:54 | 25.99351 | -100.10074 | 11556 ft | 265 kts | 301° |
| 2026-04-21 05:55 | 26.00345 | -100.11818 | 11233 ft | 267 kts | 301° |
| 2026-04-21 05:55 | 26.01326 | -100.13542 | 10870 ft | 267 kts | 301° |
| 2026-04-21 05:55 | 26.02319 | -100.15285 | 10477 ft | 268 kts | 301° |
| 2026-04-21 05:55 | 26.03320 | -100.17044 | 10091 ft | 269 kts | 301° |
| 2026-04-21 05:56 | 26.04296 | -100.18834 | 9514 ft | 274 kts | 292° |
| 2026-04-21 05:56 | 26.04569 | -100.20841 | 9247 ft | 255 kts | 256° |
| 2026-04-21 05:56 | 26.03866 | -100.22550 | 8886 ft | 240 kts | 223° |
| 2026-04-21 05:56 | 26.02531 | -100.23553 | 8479 ft | 229 kts | 202° |
| 2026-04-21 05:57 | 26.01134 | -100.24386 | 8107 ft | 226 kts | 207° |
| 2026-04-21 05:57 | 25.99809 | -100.25292 | 7742 ft | 221 kts | 208° |
| 2026-04-21 05:57 | 25.98513 | -100.26206 | 7386 ft | 218 kts | 208° |
| 2026-04-21 05:57 | 25.97240 | -100.27102 | 7041 ft | 214 kts | 207° |
| 2026-04-21 05:58 | 25.96006 | -100.27960 | 6717 ft | 210 kts | 206° |
| 2026-04-21 05:58 | 25.94799 | -100.28793 | 6390 ft | 199 kts | 206° |
| 2026-04-21 05:58 | 25.93642 | -100.29584 | 6062 ft | 193 kts | 207° |
| 2026-04-21 05:58 | 25.92506 | -100.30356 | 5746 ft | 190 kts | 207° |
| 2026-04-21 05:59 | 25.91385 | -100.31113 | 5634 ft | 189 kts | 206° |
| 2026-04-21 05:59 | 25.90160 | -100.31534 | 5572 ft | 184 kts | 173° |
| 2026-04-21 05:59 | 25.89023 | -100.30977 | 5401 ft | 182 kts | 134° |
| 2026-04-21 06:00 | 25.87697 | -100.28650 | 4864 ft | 174 kts | 122° |
| 2026-04-21 06:00 | 25.87075 | -100.27510 | 4610 ft | 171 kts | 122° |
| 2026-04-21 06:00 | 25.86465 | -100.26394 | 4365 ft | 167 kts | 122° |
| 2026-04-21 06:00 | 25.85875 | -100.25318 | 4145 ft | 160 kts | 122° |
| 2026-04-21 06:01 | 25.85314 | -100.24297 | 3927 ft | 153 kts | 122° |
| 2026-04-21 06:01 | 25.84784 | -100.23328 | 3732 ft | 143 kts | 121° |
| 2026-04-21 06:01 | 25.84274 | -100.22395 | 3549 ft | 140 kts | 121° |
| 2026-04-21 06:01 | 25.83774 | -100.21481 | 3370 ft | 138 kts | 122° |
| 2026-04-21 06:02 | 25.83277 | -100.20575 | 3189 ft | 137 kts | 121° |
| 2026-04-21 06:02 | 25.82785 | -100.19670 | 3004 ft | 137 kts | 121° |
| 2026-04-21 06:02 | 25.82289 | -100.18768 | 2781 ft | 136 kts | 121° |
| 2026-04-21 06:02 | 25.81793 | -100.17872 | 2583 ft | 137 kts | 121° |
| 2026-04-21 06:03 | 25.81296 | -100.16970 | 2382 ft | 137 kts | 121° |
| 2026-04-21 06:03 | 25.80797 | -100.16057 | 2184 ft | 139 kts | 121° |
| 2026-04-21 06:03 | 25.80295 | -100.15136 | 1999 ft | 140 kts | 122° |
| 2026-04-21 06:03 | 25.79792 | -100.14216 | 1807 ft | 139 kts | 123° |
| 2026-04-21 06:04 | 25.79295 | -100.13290 | 1633 ft | 139 kts | 124° |
| 2026-04-21 06:04 | 25.78803 | -100.12364 | 1537 ft | 141 kts | 125° |
| 2026-04-21 06:04 | 25.78274 | -100.11452 | 1357 ft | 141 kts | 131° |
| 2026-04-21 06:04 | 25.77802 | -100.10629 | 1331 ft | 103 kts | 121° |
| 2026-04-21 06:05 | 25.77605 | -100.10243 | 1331 ft | 70 kts | 120° |
| 2026-04-21 06:05 | 25.77359 | -100.09797 | 1331 ft | 46 kts | 120° |
| 2026-04-21 06:05 | 25.77210 | -100.09523 | 1331 ft | 39 kts | 122° |
| 2026-04-21 06:05 | 25.77066 | -100.09284 | 1331 ft | 34 kts | 123° |
| 2026-04-21 06:06 | 25.76965 | -100.09179 | 1331 ft | 9 kts | 189° |
| 2026-04-21 06:06 | 25.76919 | -100.09229 | 1334 ft | 14 kts | 225° |
| 2026-04-21 06:06 | 25.76877 | -100.09284 | 1333 ft | 14 kts | 251° |
| 2026-04-21 06:06 | 25.76908 | -100.09377 | 1331 ft | 12 kts | 308° |
| 2026-04-21 06:07 | 25.76946 | -100.09445 | 1331 ft | 9 kts | 300° |
| 2026-04-21 06:07 | 25.76973 | -100.09497 | 1331 ft | 6 kts | 299° |
| 2026-04-21 06:07 | 25.76990 | -100.09532 | 1331 ft | 4 kts | 299° |
| 2026-04-21 06:07 | 25.77006 | -100.09563 | 1333 ft | 7 kts | 299° |
| 2026-04-21 06:08 | 25.77027 | -100.09601 | 1331 ft | 5 kts | 303° |
| 2026-04-21 06:08 | 25.77045 | -100.09631 | 1331 ft | 10 kts | 303° |
| 2026-04-21 06:08 | 25.77089 | -100.09706 | 1331 ft | 11 kts | 303° |
| 2026-04-21 06:08 | 25.77125 | -100.09769 | 1331 ft | 9 kts | 302° |
| 2026-04-21 06:09 | 25.77160 | -100.09833 | 1331 ft | 13 kts | 301° |
| 2026-04-21 06:09 | 25.77204 | -100.09914 | 1331 ft | 11 kts | 301° |
| 2026-04-21 06:09 | 25.77240 | -100.09982 | 1331 ft | 9 kts | 300° |
| 2026-04-21 06:09 | 25.77268 | -100.10035 | 1331 ft | 7 kts | 300° |
| 2026-04-21 06:10 | 25.77310 | -100.10116 | 1331 ft | 14 kts | 300° |
| 2026-04-21 06:10 | 25.77357 | -100.10198 | 1331 ft | 11 kts | 302° |
| 2026-04-21 06:10 | 25.77395 | -100.10266 | 1331 ft | 9 kts | 302° |
| 2026-04-21 06:10 | 25.77424 | -100.10318 | 1331 ft | 7 kts | 302° |
| 2026-04-21 06:11 | 25.77465 | -100.10392 | 1331 ft | 16 kts | 301° |
| 2026-04-21 06:11 | 25.77521 | -100.10495 | 1331 ft | 15 kts | 301° |
| 2026-04-21 06:11 | 25.77570 | -100.10585 | 1331 ft | 13 kts | 300° |
| 2026-04-21 06:11 | 25.77611 | -100.10663 | 1331 ft | 11 kts | 300° |
| 2026-04-21 06:12 | 25.77645 | -100.10729 | 1331 ft | 9 kts | 300° |
| 2026-04-21 06:12 | 25.77682 | -100.10795 | 1331 ft | 18 kts | 302° |
| 2026-04-21 06:12 | 25.77752 | -100.10919 | 1331 ft | 19 kts | 302° |
| 2026-04-21 06:12 | 25.77817 | -100.11036 | 1331 ft | 17 kts | 301° |
| 2026-04-21 06:13 | 25.77874 | -100.11143 | 1331 ft | 15 kts | 300° |
| 2026-04-21 06:13 | 25.77928 | -100.11238 | 1331 ft | 14 kts | 302° |
| 2026-04-21 06:13 | 25.77955 | -100.11286 | 1331 ft | 4 kts | 302° |
| 2026-04-21 06:13 | 25.77965 | -100.11303 | 1333 ft | 2 kts | 302° |
| 2026-04-21 06:14 | 25.77967 | -100.11308 | 1332 ft | 0 kts | 302° |
| 2026-04-21 06:14 | 25.77968 | -100.11308 | 1332 ft | 0 kts | 302° |
| 2026-04-21 06:14 | 25.77974 | -100.11320 | 1331 ft | 6 kts | 302° |
| 2026-04-21 06:15 | 25.77961 | -100.11361 | 1331 ft | 5 kts | 209° |
| 2026-04-21 06:15 | 25.77930 | -100.11375 | 1331 ft | 4 kts | 205° |
| 2026-04-21 06:15 | 25.77909 | -100.11387 | 1334 ft | 2 kts | 209° |
| 2026-04-21 06:15 | 25.77907 | -100.11389 | 1333 ft | 0 kts | 209° |
| 2026-04-21 06:16 | 25.77904 | -100.11391 | 1331 ft | 0 kts | 209° |